sensor_id;sensor_type;location;lat;lon;timestamp;P1;durP1;ratioP1;P2;durP2;ratioP2
3911;SDS011;1971;51.778;10.330;2024-01-27T00:01:41;5.57;;;2.30;;
3911;SDS011;1971;51.778;10.330;2024-01-27T00:04:11;6.73;;;1.77;;
3911;SDS011;1971;51.778;10.330;2024-01-27T00:06:41;7.43;;;2.33;;
3911;SDS011;1971;51.778;10.330;2024-01-27T00:09:11;5.97;;;1.53;;
3911;SDS011;1971;51.778;10.330;2024-01-27T00:11:42;5.70;;;1.80;;
3911;SDS011;1971;51.778;10.330;2024-01-27T00:14:12;5.07;;;1.97;;
3911;SDS011;1971;51.778;10.330;2024-01-27T00:16:45;11.47;;;2.40;;
3911;SDS011;1971;51.778;10.330;2024-01-27T00:19:15;6.23;;;3.00;;
3911;SDS011;1971;51.778;10.330;2024-01-27T00:21:45;6.13;;;2.40;;
3911;SDS011;1971;51.778;10.330;2024-01-27T00:24:15;7.77;;;3.27;;
3911;SDS011;1971;51.778;10.330;2024-01-27T00:26:45;16.13;;;2.10;;
3911;SDS011;1971;51.778;10.330;2024-01-27T00:29:16;3.80;;;1.77;;
3911;SDS011;1971;51.778;10.330;2024-01-27T00:31:49;9.27;;;3.60;;
3911;SDS011;1971;51.778;10.330;2024-01-27T00:34:21;27.17;;;5.73;;
3911;SDS011;1971;51.778;10.330;2024-01-27T00:36:51;8.00;;;2.33;;
3911;SDS011;1971;51.778;10.330;2024-01-27T00:39:21;54.97;;;6.87;;
3911;SDS011;1971;51.778;10.330;2024-01-27T00:41:52;27.37;;;3.30;;
3911;SDS011;1971;51.778;10.330;2024-01-27T00:44:25;13.73;;;2.63;;
3911;SDS011;1971;51.778;10.330;2024-01-27T00:46:58;16.27;;;3.93;;
3911;SDS011;1971;51.778;10.330;2024-01-27T00:49:28;17.30;;;4.13;;
3911;SDS011;1971;51.778;10.330;2024-01-27T00:51:58;9.67;;;3.50;;
3911;SDS011;1971;51.778;10.330;2024-01-27T00:54:28;11.83;;;2.10;;
3911;SDS011;1971;51.778;10.330;2024-01-27T00:56:58;5.80;;;2.37;;
3911;SDS011;1971;51.778;10.330;2024-01-27T00:59:28;11.80;;;3.10;;
3911;SDS011;1971;51.778;10.330;2024-01-27T01:02:01;3.20;;;2.00;;
3911;SDS011;1971;51.778;10.330;2024-01-27T01:04:31;9.63;;;2.33;;
3911;SDS011;1971;51.778;10.330;2024-01-27T01:07:02;6.00;;;1.87;;
3911;SDS011;1971;51.778;10.330;2024-01-27T01:09:32;8.90;;;2.27;;
3911;SDS011;1971;51.778;10.330;2024-01-27T01:12:03;6.27;;;1.90;;
3911;SDS011;1971;51.778;10.330;2024-01-27T01:14:34;7.10;;;1.87;;
3911;SDS011;1971;51.778;10.330;2024-01-27T01:17:06;5.17;;;2.30;;
3911;SDS011;1971;51.778;10.330;2024-01-27T01:19:36;6.57;;;2.27;;
3911;SDS011;1971;51.778;10.330;2024-01-27T01:22:07;11.77;;;2.70;;
3911;SDS011;1971;51.778;10.330;2024-01-27T01:24:39;6.20;;;2.23;;
3911;SDS011;1971;51.778;10.330;2024-01-27T01:27:09;11.40;;;2.80;;
3911;SDS011;1971;51.778;10.330;2024-01-27T01:29:40;3.43;;;2.10;;
3911;SDS011;1971;51.778;10.330;2024-01-27T01:32:13;7.87;;;3.10;;
3911;SDS011;1971;51.778;10.330;2024-01-27T01:34:43;7.17;;;2.63;;
3911;SDS011;1971;51.778;10.330;2024-01-27T01:37:15;8.77;;;3.50;;
3911;SDS011;1971;51.778;10.330;2024-01-27T01:39:46;6.97;;;2.30;;
3911;SDS011;1971;51.778;10.330;2024-01-27T01:42:16;5.13;;;2.10;;
3911;SDS011;1971;51.778;10.330;2024-01-27T01:44:47;7.40;;;2.70;;
3911;SDS011;1971;51.778;10.330;2024-01-27T01:47:20;8.33;;;2.57;;
3911;SDS011;1971;51.778;10.330;2024-01-27T01:49:50;5.57;;;1.50;;
3911;SDS011;1971;51.778;10.330;2024-01-27T01:52:22;8.90;;;1.80;;
3911;SDS011;1971;51.778;10.330;2024-01-27T01:54:52;6.40;;;2.33;;
3911;SDS011;1971;51.778;10.330;2024-01-27T01:57:24;8.23;;;2.80;;
3911;SDS011;1971;51.778;10.330;2024-01-27T01:59:54;7.50;;;2.13;;
3911;SDS011;1971;51.778;10.330;2024-01-27T02:02:28;12.00;;;2.40;;
3911;SDS011;1971;51.778;10.330;2024-01-27T02:04:58;7.33;;;2.70;;
3911;SDS011;1971;51.778;10.330;2024-01-27T02:07:28;10.53;;;2.60;;
3911;SDS011;1971;51.778;10.330;2024-01-27T02:09:58;4.57;;;2.40;;
3911;SDS011;1971;51.778;10.330;2024-01-27T02:12:28;9.00;;;2.23;;
3911;SDS011;1971;51.778;10.330;2024-01-27T02:14:58;12.30;;;3.13;;
3911;SDS011;1971;51.778;10.330;2024-01-27T02:17:31;5.53;;;2.53;;
3911;SDS011;1971;51.778;10.330;2024-01-27T02:20:02;9.23;;;3.17;;
3911;SDS011;1971;51.778;10.330;2024-01-27T02:22:33;10.70;;;3.07;;
3911;SDS011;1971;51.778;10.330;2024-01-27T02:25:06;8.83;;;2.97;;
3911;SDS011;1971;51.778;10.330;2024-01-27T02:27:37;18.37;;;2.73;;
3911;SDS011;1971;51.778;10.330;2024-01-27T02:30:07;8.33;;;2.70;;
3911;SDS011;1971;51.778;10.330;2024-01-27T02:32:38;371.77;;;71.50;;
3911;SDS011;1971;51.778;10.330;2024-01-27T02:35:08;13.73;;;3.40;;
3911;SDS011;1971;51.778;10.330;2024-01-27T02:37:39;17.67;;;4.83;;
3911;SDS011;1971;51.778;10.330;2024-01-27T02:40:12;9.70;;;3.03;;
3911;SDS011;1971;51.778;10.330;2024-01-27T02:42:43;6.97;;;2.50;;
3911;SDS011;1971;51.778;10.330;2024-01-27T02:45:13;4.90;;;1.90;;
3911;SDS011;1971;51.778;10.330;2024-01-27T02:47:43;14.07;;;3.17;;
3911;SDS011;1971;51.778;10.330;2024-01-27T02:50:14;7.73;;;3.03;;
3911;SDS011;1971;51.778;10.330;2024-01-27T02:52:44;12.87;;;3.40;;
3911;SDS011;1971;51.778;10.330;2024-01-27T02:55:17;8.40;;;3.17;;
3911;SDS011;1971;51.778;10.330;2024-01-27T02:57:47;8.73;;;3.00;;
3911;SDS011;1971;51.778;10.330;2024-01-27T03:00:18;10.70;;;2.93;;
3911;SDS011;1971;51.778;10.330;2024-01-27T03:02:48;5.30;;;2.67;;
3911;SDS011;1971;51.778;10.330;2024-01-27T03:05:18;13.10;;;3.43;;
3911;SDS011;1971;51.778;10.330;2024-01-27T03:07:49;10.17;;;3.23;;
3911;SDS011;1971;51.778;10.330;2024-01-27T03:10:22;16.07;;;2.93;;
3911;SDS011;1971;51.778;10.330;2024-01-27T03:12:52;11.70;;;3.20;;
3911;SDS011;1971;51.778;10.330;2024-01-27T03:15:23;11.57;;;3.90;;
3911;SDS011;1971;51.778;10.330;2024-01-27T03:17:53;9.50;;;3.27;;
3911;SDS011;1971;51.778;10.330;2024-01-27T03:20:24;8.70;;;2.83;;
3911;SDS011;1971;51.778;10.330;2024-01-27T03:22:54;13.77;;;4.10;;
3911;SDS011;1971;51.778;10.330;2024-01-27T03:25:27;14.00;;;3.90;;
3911;SDS011;1971;51.778;10.330;2024-01-27T03:27:58;10.47;;;3.30;;
3911;SDS011;1971;51.778;10.330;2024-01-27T03:30:28;1999.90;;;999.90;;
3911;SDS011;1971;51.778;10.330;2024-01-27T03:32:59;1999.90;;;999.90;;
3911;SDS011;1971;51.778;10.330;2024-01-27T03:35:29;1258.53;;;821.80;;
3911;SDS011;1971;51.778;10.330;2024-01-27T03:37:59;179.17;;;164.63;;
3911;SDS011;1971;51.778;10.330;2024-01-27T03:40:33;347.57;;;323.87;;
3911;SDS011;1971;51.778;10.330;2024-01-27T03:43:03;325.67;;;304.93;;
3911;SDS011;1971;51.778;10.330;2024-01-27T03:45:34;104.57;;;93.90;;
3911;SDS011;1971;51.778;10.330;2024-01-27T03:48:04;1999.90;;;999.90;;
3911;SDS011;1971;51.778;10.330;2024-01-27T03:50:35;1999.90;;;999.90;;
3911;SDS011;1971;51.778;10.330;2024-01-27T03:53:06;1999.90;;;999.90;;
3911;SDS011;1971;51.778;10.330;2024-01-27T03:55:38;1818.57;;;998.27;;
3911;SDS011;1971;51.778;10.330;2024-01-27T03:58:08;744.27;;;700.97;;
3911;SDS011;1971;51.778;10.330;2024-01-27T04:00:38;98.30;;;88.30;;
3911;SDS011;1971;51.778;10.330;2024-01-27T04:03:11;551.10;;;525.13;;
3911;SDS011;1971;51.778;10.330;2024-01-27T04:05:42;604.47;;;570.17;;
3911;SDS011;1971;51.778;10.330;2024-01-27T04:08:13;88.20;;;58.23;;
3911;SDS011;1971;51.778;10.330;2024-01-27T04:10:47;305.43;;;288.90;;
3911;SDS011;1971;51.778;10.330;2024-01-27T04:13:17;898.33;;;843.30;;
3911;SDS011;1971;51.778;10.330;2024-01-27T04:15:47;716.03;;;681.50;;
3911;SDS011;1971;51.778;10.330;2024-01-27T04:18:18;500.97;;;476.50;;
3911;SDS011;1971;51.778;10.330;2024-01-27T04:20:48;60.40;;;6.23;;
3911;SDS011;1971;51.778;10.330;2024-01-27T04:23:19;304.93;;;289.53;;
3911;SDS011;1971;51.778;10.330;2024-01-27T04:25:52;87.20;;;78.70;;
3911;SDS011;1971;51.778;10.330;2024-01-27T04:28:22;73.03;;;64.03;;
3911;SDS011;1971;51.778;10.330;2024-01-27T04:30:52;43.40;;;2.27;;
3911;SDS011;1971;51.778;10.330;2024-01-27T04:33:23;54.20;;;34.93;;
3911;SDS011;1971;51.778;10.330;2024-01-27T04:35:53;41.43;;;3.67;;
3911;SDS011;1971;51.778;10.330;2024-01-27T04:38:24;35.90;;;1.47;;
3911;SDS011;1971;51.778;10.330;2024-01-27T04:40:57;40.00;;;3.00;;
3911;SDS011;1971;51.778;10.330;2024-01-27T04:43:27;25.00;;;1.13;;
3911;SDS011;1971;51.778;10.330;2024-01-27T04:45:57;33.07;;;7.57;;
3911;SDS011;1971;51.778;10.330;2024-01-27T04:48:27;186.20;;;176.57;;
3911;SDS011;1971;51.778;10.330;2024-01-27T04:50:57;56.57;;;40.80;;
3911;SDS011;1971;51.778;10.330;2024-01-27T04:53:28;44.10;;;1.90;;
3911;SDS011;1971;51.778;10.330;2024-01-27T04:56:01;155.17;;;143.77;;
3911;SDS011;1971;51.778;10.330;2024-01-27T04:58:34;678.77;;;647.27;;
3911;SDS011;1971;51.778;10.330;2024-01-27T05:01:05;46.60;;;1.10;;
3911;SDS011;1971;51.778;10.330;2024-01-27T05:03:35;23.90;;;4.80;;
3911;SDS011;1971;51.778;10.330;2024-01-27T05:06:07;82.43;;;67.20;;
3911;SDS011;1971;51.778;10.330;2024-01-27T05:08:38;114.10;;;102.10;;
3911;SDS011;1971;51.778;10.330;2024-01-27T05:11:11;649.83;;;614.93;;
3911;SDS011;1971;51.778;10.330;2024-01-27T05:13:42;1372.73;;;999.90;;
3911;SDS011;1971;51.778;10.330;2024-01-27T05:16:12;1999.90;;;999.90;;
3911;SDS011;1971;51.778;10.330;2024-01-27T05:18:42;415.07;;;393.13;;
3911;SDS011;1971;51.778;10.330;2024-01-27T05:21:17;461.67;;;415.00;;
3911;SDS011;1971;51.778;10.330;2024-01-27T05:23:47;1999.90;;;999.90;;
3911;SDS011;1971;51.778;10.330;2024-01-27T05:26:20;552.10;;;522.37;;
3911;SDS011;1971;51.778;10.330;2024-01-27T05:28:50;5.23;;;2.03;;
3911;SDS011;1971;51.778;10.330;2024-01-27T05:31:20;0.53;;;0.20;;
3911;SDS011;1971;51.778;10.330;2024-01-27T05:33:51;0.40;;;0.30;;
3911;SDS011;1971;51.778;10.330;2024-01-27T05:36:22;469.60;;;444.03;;
3911;SDS011;1971;51.778;10.330;2024-01-27T05:38:52;10.87;;;3.43;;
3911;SDS011;1971;51.778;10.330;2024-01-27T05:41:27;0.60;;;0.30;;
3911;SDS011;1971;51.778;10.330;2024-01-27T05:43:58;0.80;;;0.30;;
3911;SDS011;1971;51.778;10.330;2024-01-27T05:46:28;35.87;;;32.13;;
3911;SDS011;1971;51.778;10.330;2024-01-27T05:48:58;6.63;;;1.73;;
3911;SDS011;1971;51.778;10.330;2024-01-27T05:51:30;0.70;;;0.30;;
3911;SDS011;1971;51.778;10.330;2024-01-27T05:54:01;0.70;;;0.30;;
3911;SDS011;1971;51.778;10.330;2024-01-27T05:56:38;0.70;;;0.30;;
3911;SDS011;1971;51.778;10.330;2024-01-27T05:59:08;0.90;;;0.30;;
3911;SDS011;1971;51.778;10.330;2024-01-27T06:01:39;0.90;;;0.30;;
3911;SDS011;1971;51.778;10.330;2024-01-27T06:04:11;0.80;;;0.30;;
3911;SDS011;1971;51.778;10.330;2024-01-27T06:06:42;2.63;;;2.47;;
3911;SDS011;1971;51.778;10.330;2024-01-27T06:09:12;391.40;;;369.40;;
3911;SDS011;1971;51.778;10.330;2024-01-27T06:11:46;516.57;;;488.53;;
3911;SDS011;1971;51.778;10.330;2024-01-27T06:14:16;294.40;;;283.33;;
3911;SDS011;1971;51.778;10.330;2024-01-27T06:16:47;69.10;;;60.60;;
3911;SDS011;1971;51.778;10.330;2024-01-27T06:19:18;44.13;;;37.70;;
3911;SDS011;1971;51.778;10.330;2024-01-27T06:21:48;71.43;;;66.43;;
3911;SDS011;1971;51.778;10.330;2024-01-27T06:24:19;269.13;;;257.33;;
3911;SDS011;1971;51.778;10.330;2024-01-27T06:26:52;8.53;;;0.40;;
3911;SDS011;1971;51.778;10.330;2024-01-27T06:29:23;10.50;;;1.60;;
3911;SDS011;1971;51.778;10.330;2024-01-27T06:31:53;11.53;;;1.50;;
3911;SDS011;1971;51.778;10.330;2024-01-27T06:34:23;11.37;;;0.77;;
3911;SDS011;1971;51.778;10.330;2024-01-27T06:36:54;14.37;;;5.10;;
3911;SDS011;1971;51.778;10.330;2024-01-27T06:39:24;11.03;;;0.60;;
3911;SDS011;1971;51.778;10.330;2024-01-27T06:41:58;10.50;;;0.93;;
3911;SDS011;1971;51.778;10.330;2024-01-27T06:44:29;9.27;;;0.70;;
3911;SDS011;1971;51.778;10.330;2024-01-27T06:46:59;9.77;;;0.70;;
3911;SDS011;1971;51.778;10.330;2024-01-27T06:49:29;8.77;;;0.60;;
3911;SDS011;1971;51.778;10.330;2024-01-27T06:52:00;9.40;;;0.53;;
3911;SDS011;1971;51.778;10.330;2024-01-27T06:54:30;8.33;;;0.40;;
3911;SDS011;1971;51.778;10.330;2024-01-27T06:57:03;8.50;;;0.47;;
3911;SDS011;1971;51.778;10.330;2024-01-27T06:59:34;157.17;;;147.43;;
3911;SDS011;1971;51.778;10.330;2024-01-27T07:02:04;146.27;;;135.80;;
3911;SDS011;1971;51.778;10.330;2024-01-27T07:04:36;62.00;;;56.70;;
3911;SDS011;1971;51.778;10.330;2024-01-27T07:07:06;9.00;;;1.17;;
3911;SDS011;1971;51.778;10.330;2024-01-27T07:09:37;11.50;;;0.53;;
3911;SDS011;1971;51.778;10.330;2024-01-27T07:12:10;1999.90;;;999.90;;
3911;SDS011;1971;51.778;10.330;2024-01-27T07:14:40;1999.90;;;999.90;;
3911;SDS011;1971;51.778;10.330;2024-01-27T07:17:10;1999.90;;;999.90;;
3911;SDS011;1971;51.778;10.330;2024-01-27T07:19:40;1999.90;;;999.90;;
3911;SDS011;1971;51.778;10.330;2024-01-27T07:22:11;1999.90;;;999.90;;
3911;SDS011;1971;51.778;10.330;2024-01-27T07:24:41;1999.90;;;999.90;;
3911;SDS011;1971;51.778;10.330;2024-01-27T07:27:15;1999.90;;;999.90;;
3911;SDS011;1971;51.778;10.330;2024-01-27T07:29:45;1999.90;;;999.90;;
3911;SDS011;1971;51.778;10.330;2024-01-27T07:32:15;1999.90;;;999.90;;
3911;SDS011;1971;51.778;10.330;2024-01-27T07:34:46;1999.90;;;999.90;;
3911;SDS011;1971;51.778;10.330;2024-01-27T07:37:16;1999.90;;;999.90;;
3911;SDS011;1971;51.778;10.330;2024-01-27T07:39:47;1999.90;;;999.90;;
3911;SDS011;1971;51.778;10.330;2024-01-27T07:42:21;1999.90;;;999.90;;
3911;SDS011;1971;51.778;10.330;2024-01-27T07:44:51;1999.90;;;999.90;;
3911;SDS011;1971;51.778;10.330;2024-01-27T07:47:21;1999.90;;;999.90;;
3911;SDS011;1971;51.778;10.330;2024-01-27T07:49:51;950.23;;;888.20;;
3911;SDS011;1971;51.778;10.330;2024-01-27T07:52:21;809.77;;;759.97;;
3911;SDS011;1971;51.778;10.330;2024-01-27T07:54:51;445.47;;;419.70;;
3911;SDS011;1971;51.778;10.330;2024-01-27T07:57:24;272.20;;;253.93;;
3911;SDS011;1971;51.778;10.330;2024-01-27T07:59:55;266.50;;;248.03;;
3911;SDS011;1971;51.778;10.330;2024-01-27T08:02:25;682.30;;;624.07;;
3911;SDS011;1971;51.778;10.330;2024-01-27T08:04:58;1999.90;;;999.90;;
3911;SDS011;1971;51.778;10.330;2024-01-27T08:07:28;1999.90;;;999.90;;
3911;SDS011;1971;51.778;10.330;2024-01-27T08:09:58;1999.90;;;999.90;;
3911;SDS011;1971;51.778;10.330;2024-01-27T08:12:33;1999.90;;;999.90;;
3911;SDS011;1971;51.778;10.330;2024-01-27T08:15:04;1999.90;;;999.90;;
3911;SDS011;1971;51.778;10.330;2024-01-27T08:17:35;1999.90;;;999.90;;
3911;SDS011;1971;51.778;10.330;2024-01-27T08:20:06;1999.90;;;999.90;;
3911;SDS011;1971;51.778;10.330;2024-01-27T08:22:37;1999.90;;;999.90;;
3911;SDS011;1971;51.778;10.330;2024-01-27T08:25:08;1999.90;;;999.90;;
3911;SDS011;1971;51.778;10.330;2024-01-27T08:27:41;1999.90;;;999.90;;
3911;SDS011;1971;51.778;10.330;2024-01-27T08:30:11;110.50;;;48.10;;
3911;SDS011;1971;51.778;10.330;2024-01-27T08:32:42;1999.90;;;999.90;;
3911;SDS011;1971;51.778;10.330;2024-01-27T08:35:12;1999.90;;;999.90;;
3911;SDS011;1971;51.778;10.330;2024-01-27T08:37:43;1999.90;;;999.90;;
3911;SDS011;1971;51.778;10.330;2024-01-27T08:40:13;1999.90;;;999.90;;
3911;SDS011;1971;51.778;10.330;2024-01-27T08:42:47;1999.90;;;999.90;;
3911;SDS011;1971;51.778;10.330;2024-01-27T08:45:17;1999.90;;;999.90;;
3911;SDS011;1971;51.778;10.330;2024-01-27T08:47:47;139.90;;;117.70;;
3911;SDS011;1971;51.778;10.330;2024-01-27T08:50:17;63.00;;;19.23;;
3911;SDS011;1971;51.778;10.330;2024-01-27T08:52:48;77.30;;;15.83;;
3911;SDS011;1971;51.778;10.330;2024-01-27T08:55:18;90.20;;;23.77;;
3911;SDS011;1971;51.778;10.330;2024-01-27T08:57:53;70.63;;;20.73;;
3911;SDS011;1971;51.778;10.330;2024-01-27T09:00:23;47.47;;;14.30;;
3911;SDS011;1971;51.778;10.330;2024-01-27T09:02:53;51.73;;;12.53;;
3911;SDS011;1971;51.778;10.330;2024-01-27T09:05:24;31.97;;;13.60;;
3911;SDS011;1971;51.778;10.330;2024-01-27T09:07:55;31.60;;;13.07;;
3911;SDS011;1971;51.778;10.330;2024-01-27T09:10:25;59.30;;;15.10;;
3911;SDS011;1971;51.778;10.330;2024-01-27T09:12:58;16.70;;;11.43;;
3911;SDS011;1971;51.778;10.330;2024-01-27T09:15:28;33.60;;;19.23;;
3911;SDS011;1971;51.778;10.330;2024-01-27T09:17:58;28.10;;;13.50;;
3911;SDS011;1971;51.778;10.330;2024-01-27T09:20:28;35.10;;;11.87;;
3911;SDS011;1971;51.778;10.330;2024-01-27T09:22:59;23.60;;;11.37;;
3911;SDS011;1971;51.778;10.330;2024-01-27T09:25:29;21.83;;;11.97;;
3911;SDS011;1971;51.778;10.330;2024-01-27T09:28:01;20.57;;;12.23;;
3911;SDS011;1971;51.778;10.330;2024-01-27T09:30:32;30.20;;;15.33;;
3911;SDS011;1971;51.778;10.330;2024-01-27T09:33:05;22.13;;;12.63;;
3911;SDS011;1971;51.778;10.330;2024-01-27T09:35:35;29.80;;;14.53;;
3911;SDS011;1971;51.778;10.330;2024-01-27T09:38:06;18.97;;;12.17;;
3911;SDS011;1971;51.778;10.330;2024-01-27T09:40:39;19.50;;;11.80;;
3911;SDS011;1971;51.778;10.330;2024-01-27T09:43:12;26.53;;;15.83;;
3911;SDS011;1971;51.778;10.330;2024-01-27T09:45:43;20.20;;;13.93;;
3911;SDS011;1971;51.778;10.330;2024-01-27T09:48:13;23.33;;;17.20;;
3911;SDS011;1971;51.778;10.330;2024-01-27T09:50:45;24.17;;;14.20;;
3911;SDS011;1971;51.778;10.330;2024-01-27T09:53:17;30.27;;;14.93;;
3911;SDS011;1971;51.778;10.330;2024-01-27T09:55:48;32.43;;;21.10;;
3911;SDS011;1971;51.778;10.330;2024-01-27T09:58:23;27.70;;;14.27;;
3911;SDS011;1971;51.778;10.330;2024-01-27T10:00:55;32.73;;;22.87;;
3911;SDS011;1971;51.778;10.330;2024-01-27T10:03:28;21.87;;;14.20;;
3911;SDS011;1971;51.778;10.330;2024-01-27T10:05:58;21.33;;;15.20;;
3911;SDS011;1971;51.778;10.330;2024-01-27T10:08:30;18.10;;;12.60;;
3911;SDS011;1971;51.778;10.330;2024-01-27T10:11:04;17.00;;;12.60;;
3911;SDS011;1971;51.778;10.330;2024-01-27T10:13:39;22.63;;;14.50;;
3911;SDS011;1971;51.778;10.330;2024-01-27T10:16:09;20.97;;;17.43;;
3911;SDS011;1971;51.778;10.330;2024-01-27T10:18:39;20.33;;;12.93;;
3911;SDS011;1971;51.778;10.330;2024-01-27T10:21:12;16.33;;;12.77;;
3911;SDS011;1971;51.778;10.330;2024-01-27T10:23:43;19.20;;;16.43;;
3911;SDS011;1971;51.778;10.330;2024-01-27T10:26:13;24.20;;;17.33;;
3911;SDS011;1971;51.778;10.330;2024-01-27T10:28:54;33.53;;;17.40;;
3911;SDS011;1971;51.778;10.330;2024-01-27T10:31:26;19.93;;;12.23;;
3911;SDS011;1971;51.778;10.330;2024-01-27T10:33:56;14.10;;;10.93;;
3911;SDS011;1971;51.778;10.330;2024-01-27T10:36:37;19.40;;;17.00;;
3911;SDS011;1971;51.778;10.330;2024-01-27T10:39:18;16.20;;;12.03;;
3911;SDS011;1971;51.778;10.330;2024-01-27T10:41:51;17.20;;;10.40;;
3911;SDS011;1971;51.778;10.330;2024-01-27T10:44:24;13.40;;;11.60;;
3911;SDS011;1971;51.778;10.330;2024-01-27T10:46:56;20.43;;;9.90;;
3911;SDS011;1971;51.778;10.330;2024-01-27T10:49:31;12.80;;;9.30;;
3911;SDS011;1971;51.778;10.330;2024-01-27T10:52:04;18.83;;;11.10;;
3911;SDS011;1971;51.778;10.330;2024-01-27T10:54:40;15.10;;;9.73;;
3911;SDS011;1971;51.778;10.330;2024-01-27T10:57:11;15.20;;;9.77;;
3911;SDS011;1971;51.778;10.330;2024-01-27T10:59:45;16.80;;;8.83;;
3911;SDS011;1971;51.778;10.330;2024-01-27T11:02:17;19.07;;;12.57;;
3911;SDS011;1971;51.778;10.330;2024-01-27T11:04:48;17.80;;;11.83;;
3911;SDS011;1971;51.778;10.330;2024-01-27T11:07:19;1999.90;;;999.90;;
3911;SDS011;1971;51.778;10.330;2024-01-27T11:09:50;14.67;;;10.43;;
3911;SDS011;1971;51.778;10.330;2024-01-27T11:12:21;12.67;;;7.50;;
3911;SDS011;1971;51.778;10.330;2024-01-27T11:14:55;10.17;;;6.43;;
3911;SDS011;1971;51.778;10.330;2024-01-27T11:17:26;677.57;;;440.80;;
3911;SDS011;1971;51.778;10.330;2024-01-27T11:19:56;10.60;;;8.67;;
3911;SDS011;1971;51.778;10.330;2024-01-27T11:22:27;12.47;;;7.40;;
3911;SDS011;1971;51.778;10.330;2024-01-27T11:25:05;20.53;;;8.87;;
3911;SDS011;1971;51.778;10.330;2024-01-27T11:27:36;20.40;;;8.60;;
3911;SDS011;1971;51.778;10.330;2024-01-27T11:30:23;1114.40;;;975.03;;
3911;SDS011;1971;51.778;10.330;2024-01-27T11:32:56;1725.90;;;411.27;;
3911;SDS011;1971;51.778;10.330;2024-01-27T11:35:27;39.77;;;21.00;;
3911;SDS011;1971;51.778;10.330;2024-01-27T11:37:58;147.57;;;131.00;;
3911;SDS011;1971;51.778;10.330;2024-01-27T11:40:28;132.07;;;103.87;;
3911;SDS011;1971;51.778;10.330;2024-01-27T11:43:00;122.10;;;113.53;;
3911;SDS011;1971;51.778;10.330;2024-01-27T11:45:36;91.03;;;81.20;;
3911;SDS011;1971;51.778;10.330;2024-01-27T11:48:07;52.77;;;36.20;;
3911;SDS011;1971;51.778;10.330;2024-01-27T11:50:37;90.77;;;67.53;;
3911;SDS011;1971;51.778;10.330;2024-01-27T11:53:07;385.83;;;288.57;;
3911;SDS011;1971;51.778;10.330;2024-01-27T11:55:37;457.70;;;430.40;;
3911;SDS011;1971;51.778;10.330;2024-01-27T11:58:11;709.73;;;650.50;;
3911;SDS011;1971;51.778;10.330;2024-01-27T12:00:43;1999.90;;;999.90;;
3911;SDS011;1971;51.778;10.330;2024-01-27T12:03:14;1999.90;;;999.90;;
3911;SDS011;1971;51.778;10.330;2024-01-27T12:05:44;1999.90;;;999.90;;
3911;SDS011;1971;51.778;10.330;2024-01-27T12:08:14;1999.90;;;999.90;;
3911;SDS011;1971;51.778;10.330;2024-01-27T12:10:46;1999.90;;;999.90;;
3911;SDS011;1971;51.778;10.330;2024-01-27T12:13:16;1999.90;;;999.90;;
3911;SDS011;1971;51.778;10.330;2024-01-27T12:15:48;1999.90;;;999.90;;
3911;SDS011;1971;51.778;10.330;2024-01-27T12:18:19;1999.90;;;999.90;;
3911;SDS011;1971;51.778;10.330;2024-01-27T12:20:54;1999.90;;;999.90;;
3911;SDS011;1971;51.778;10.330;2024-01-27T12:23:25;1999.90;;;999.90;;
3911;SDS011;1971;51.778;10.330;2024-01-27T12:25:55;459.33;;;297.97;;
3911;SDS011;1971;51.778;10.330;2024-01-27T12:28:26;69.20;;;13.40;;
3911;SDS011;1971;51.778;10.330;2024-01-27T12:30:59;65.00;;;14.40;;
3911;SDS011;1971;51.778;10.330;2024-01-27T12:33:29;75.10;;;26.50;;
3911;SDS011;1971;51.778;10.330;2024-01-27T12:36:00;891.23;;;407.90;;
3911;SDS011;1971;51.778;10.330;2024-01-27T12:38:30;1094.10;;;705.57;;
3911;SDS011;1971;51.778;10.330;2024-01-27T12:41:00;1391.10;;;686.20;;
3911;SDS011;1971;51.778;10.330;2024-01-27T12:43:30;10.90;;;4.60;;
3911;SDS011;1971;51.778;10.330;2024-01-27T12:46:03;9.37;;;3.93;;
3911;SDS011;1971;51.778;10.330;2024-01-27T12:48:33;10.73;;;4.70;;
3911;SDS011;1971;51.778;10.330;2024-01-27T12:51:03;8.87;;;3.83;;
3911;SDS011;1971;51.778;10.330;2024-01-27T12:53:33;6.63;;;3.70;;
3911;SDS011;1971;51.778;10.330;2024-01-27T12:56:05;13.23;;;4.93;;
3911;SDS011;1971;51.778;10.330;2024-01-27T12:58:35;9.37;;;4.47;;
3911;SDS011;1971;51.778;10.330;2024-01-27T13:01:08;10.07;;;3.90;;
3911;SDS011;1971;51.778;10.330;2024-01-27T13:03:38;9.93;;;4.77;;
3911;SDS011;1971;51.778;10.330;2024-01-27T13:06:11;8.53;;;4.33;;
3911;SDS011;1971;51.778;10.330;2024-01-27T13:08:42;7.53;;;3.57;;
3911;SDS011;1971;51.778;10.330;2024-01-27T13:11:13;9.83;;;3.90;;
3911;SDS011;1971;51.778;10.330;2024-01-27T13:13:43;10.93;;;4.67;;
3911;SDS011;1971;51.778;10.330;2024-01-27T13:16:19;9.37;;;4.77;;
3911;SDS011;1971;51.778;10.330;2024-01-27T13:18:49;7.13;;;3.27;;
3911;SDS011;1971;51.778;10.330;2024-01-27T13:21:20;9.07;;;4.40;;
3911;SDS011;1971;51.778;10.330;2024-01-27T13:23:50;7.47;;;3.90;;
3911;SDS011;1971;51.778;10.330;2024-01-27T13:26:21;12.27;;;4.13;;
3911;SDS011;1971;51.778;10.330;2024-01-27T13:28:53;9.73;;;4.83;;
3911;SDS011;1971;51.778;10.330;2024-01-27T13:31:26;10.70;;;3.80;;
3911;SDS011;1971;51.778;10.330;2024-01-27T13:33:57;7.40;;;4.03;;
3911;SDS011;1971;51.778;10.330;2024-01-27T13:36:28;7.27;;;3.70;;
3911;SDS011;1971;51.778;10.330;2024-01-27T13:39:00;10.90;;;4.40;;
3911;SDS011;1971;51.778;10.330;2024-01-27T13:41:31;10.43;;;4.13;;
3911;SDS011;1971;51.778;10.330;2024-01-27T13:44:01;8.87;;;3.23;;
3911;SDS011;1971;51.778;10.330;2024-01-27T13:46:35;7.27;;;4.20;;
3911;SDS011;1971;51.778;10.330;2024-01-27T13:49:05;10.03;;;4.13;;
3911;SDS011;1971;51.778;10.330;2024-01-27T13:51:36;13.43;;;3.00;;
3911;SDS011;1971;51.778;10.330;2024-01-27T13:54:06;11.90;;;3.10;;
3911;SDS011;1971;51.778;10.330;2024-01-27T13:56:37;9.10;;;4.20;;
3911;SDS011;1971;51.778;10.330;2024-01-27T13:59:07;11.10;;;3.90;;
3911;SDS011;1971;51.778;10.330;2024-01-27T14:01:40;9.57;;;3.63;;
3911;SDS011;1971;51.778;10.330;2024-01-27T14:04:11;7.00;;;3.00;;
3911;SDS011;1971;51.778;10.330;2024-01-27T14:06:41;4.50;;;2.27;;
3911;SDS011;1971;51.778;10.330;2024-01-27T14:09:12;9.57;;;3.70;;
3911;SDS011;1971;51.778;10.330;2024-01-27T14:11:43;7.33;;;3.63;;
3911;SDS011;1971;51.778;10.330;2024-01-27T14:14:13;6.40;;;3.37;;
3911;SDS011;1971;51.778;10.330;2024-01-27T14:16:46;4.20;;;2.10;;
3911;SDS011;1971;51.778;10.330;2024-01-27T14:19:16;5.47;;;2.47;;
3911;SDS011;1971;51.778;10.330;2024-01-27T14:21:46;5.93;;;2.97;;
3911;SDS011;1971;51.778;10.330;2024-01-27T14:24:17;5.43;;;2.93;;
3911;SDS011;1971;51.778;10.330;2024-01-27T14:26:47;9.83;;;2.37;;
3911;SDS011;1971;51.778;10.330;2024-01-27T14:29:17;5.10;;;3.30;;
3911;SDS011;1971;51.778;10.330;2024-01-27T14:31:50;4.87;;;2.10;;
3911;SDS011;1971;51.778;10.330;2024-01-27T14:34:20;6.90;;;3.00;;
3911;SDS011;1971;51.778;10.330;2024-01-27T14:36:51;6.97;;;3.20;;
3911;SDS011;1971;51.778;10.330;2024-01-27T14:39:22;5.33;;;3.07;;
3911;SDS011;1971;51.778;10.330;2024-01-27T14:41:52;8.10;;;3.30;;
3911;SDS011;1971;51.778;10.330;2024-01-27T14:44:22;6.60;;;3.37;;
3911;SDS011;1971;51.778;10.330;2024-01-27T14:46:55;9.30;;;3.30;;
3911;SDS011;1971;51.778;10.330;2024-01-27T14:49:25;3.30;;;1.67;;
3911;SDS011;1971;51.778;10.330;2024-01-27T14:51:55;9.20;;;2.83;;
3911;SDS011;1971;51.778;10.330;2024-01-27T14:54:26;4.10;;;2.37;;
3911;SDS011;1971;51.778;10.330;2024-01-27T14:56:56;5.87;;;2.30;;
3911;SDS011;1971;51.778;10.330;2024-01-27T14:59:29;5.63;;;2.07;;